sensor_id;sensor_type;location;lat;lon;timestamp;P1;durP1;ratioP1;P2;durP2;ratioP2
50651;SDS011;66928;52.086;5.240;2023-01-25T06:27:13;41.4;;;32.1;;
50651;SDS011;66928;52.086;5.240;2023-01-25T06:28:49;40.9;;;31.9;;
50651;SDS011;66928;52.086;5.240;2023-01-25T06:30:26;42.4;;;33.71;;
50651;SDS011;66928;52.086;5.240;2023-01-25T06:32:02;41.5;;;32.1;;
50651;SDS011;66928;52.086;5.240;2023-01-25T06:35:16;42.5;;;33.3;;
50651;SDS011;66928;52.086;5.240;2023-01-25T06:36:52;41.5;;;32.6;;
50651;SDS011;66928;52.086;5.240;2023-01-25T06:38:28;40.31;;;32.3;;
50651;SDS011;66928;52.086;5.240;2023-01-25T06:41:46;39.81;;;32.21;;
50651;SDS011;66928;52.086;5.240;2023-01-25T06:43:22;38.4;;;30.5;;
50651;SDS011;66928;52.086;5.240;2023-01-25T06:44:58;41.6;;;33.21;;
50651;SDS011;66928;52.086;5.240;2023-01-25T06:48:10;43.8;;;34.1;;
50651;SDS011;66928;52.086;5.240;2023-01-25T06:49:46;44.5;;;33.9;;
50651;SDS011;66928;52.086;5.240;2023-01-25T06:51:22;43.6;;;34.21;;
50651;SDS011;66928;52.086;5.240;2023-01-25T06:52:59;45.4;;;34.9;;
50651;SDS011;66928;52.086;5.240;2023-01-25T06:56:11;41.7;;;33.5;;
50651;SDS011;66928;52.086;5.240;2023-01-25T06:57:50;43.9;;;34.1;;
50651;SDS011;66928;52.086;5.240;2023-01-25T06:59:26;45.1;;;34.5;;
50651;SDS011;66928;52.086;5.240;2023-01-25T07:02:42;45.2;;;34.9;;
50651;SDS011;66928;52.086;5.240;2023-01-25T07:04:18;44.5;;;34.4;;
50651;SDS011;66928;52.086;5.240;2023-01-25T07:05:57;43.5;;;34.6;;
50651;SDS011;66928;52.086;5.240;2023-01-25T07:07:34;43.6;;;34.31;;
50651;SDS011;66928;52.086;5.240;2023-01-25T07:10:52;45.6;;;34.81;;
50651;SDS011;66928;52.086;5.240;2023-01-25T07:12:30;43.6;;;34.21;;
50651;SDS011;66928;52.086;5.240;2023-01-25T07:14:06;41.4;;;33.4;;
50651;SDS011;66928;52.086;5.240;2023-01-25T07:17:18;43.1;;;34.5;;
50651;SDS011;66928;52.086;5.240;2023-01-25T07:18:54;45.0;;;34.81;;
50651;SDS011;66928;52.086;5.240;2023-01-25T07:20:30;44.5;;;34.9;;
50651;SDS011;66928;52.086;5.240;2023-01-25T07:23:43;44.2;;;35.0;;
50651;SDS011;66928;52.086;5.240;2023-01-25T07:25:19;46.6;;;35.5;;
50651;SDS011;66928;52.086;5.240;2023-01-25T07:26:55;43.3;;;33.71;;
50651;SDS011;66928;52.086;5.240;2023-01-25T07:28:31;46.8;;;36.4;;
50651;SDS011;66928;52.086;5.240;2023-01-25T07:31:46;44.6;;;35.31;;
50651;SDS011;66928;52.086;5.240;2023-01-25T07:33:22;46.7;;;35.81;;
50651;SDS011;66928;52.086;5.240;2023-01-25T07:34:59;46.9;;;35.21;;
50651;SDS011;66928;52.086;5.240;2023-01-25T07:38:12;45.9;;;35.81;;
50651;SDS011;66928;52.086;5.240;2023-01-25T07:39:49;47.2;;;34.81;;
50651;SDS011;66928;52.086;5.240;2023-01-25T07:41:26;45.8;;;34.71;;
50651;SDS011;66928;52.086;5.240;2023-01-25T07:44:38;46.5;;;35.4;;
50651;SDS011;66928;52.086;5.240;2023-01-25T07:46:16;48.0;;;36.21;;
50651;SDS011;66928;52.086;5.240;2023-01-25T07:47:53;47.0;;;35.21;;
50651;SDS011;66928;52.086;5.240;2023-01-25T07:49:29;47.1;;;35.21;;
50651;SDS011;66928;52.086;5.240;2023-01-25T07:52:58;46.7;;;35.6;;
50651;SDS011;66928;52.086;5.240;2023-01-25T07:54:34;45.6;;;34.71;;
50651;SDS011;66928;52.086;5.240;2023-01-25T07:56:11;45.6;;;34.71;;
50651;SDS011;66928;52.086;5.240;2023-01-25T07:57:47;47.0;;;35.6;;
50651;SDS011;66928;52.086;5.240;2023-01-25T08:01:08;49.0;;;36.9;;
50651;SDS011;66928;52.086;5.240;2023-01-25T08:02:48;47.3;;;36.0;;
50651;SDS011;66928;52.086;5.240;2023-01-25T08:04:25;48.6;;;36.81;;
50651;SDS011;66928;52.086;5.240;2023-01-25T08:07:41;50.8;;;37.4;;
50651;SDS011;66928;52.086;5.240;2023-01-25T08:09:18;48.1;;;36.21;;
50651;SDS011;66928;52.086;5.240;2023-01-25T08:10:54;50.8;;;36.31;;
50651;SDS011;66928;52.086;5.240;2023-01-25T08:12:33;48.5;;;36.81;;
50651;SDS011;66928;52.086;5.240;2023-01-25T08:15:51;51.6;;;38.4;;
50651;SDS011;66928;52.086;5.240;2023-01-25T08:17:31;49.5;;;37.9;;
50651;SDS011;66928;52.086;5.240;2023-01-25T08:19:09;50.2;;;37.4;;
50651;SDS011;66928;52.086;5.240;2023-01-25T08:20:46;49.6;;;37.5;;
50651;SDS011;66928;52.086;5.240;2023-01-25T08:24:00;50.8;;;37.9;;
50651;SDS011;66928;52.086;5.240;2023-01-25T08:25:39;52.8;;;38.21;;
50651;SDS011;66928;52.086;5.240;2023-01-25T08:27:15;53.5;;;39.6;;
50651;SDS011;66928;52.086;5.240;2023-01-25T08:30:29;53.0;;;39.6;;
50651;SDS011;66928;52.086;5.240;2023-01-25T08:32:07;50.9;;;37.4;;
50651;SDS011;66928;52.086;5.240;2023-01-25T08:33:45;54.3;;;39.4;;
50651;SDS011;66928;52.086;5.240;2023-01-25T08:36:58;51.9;;;38.71;;
50651;SDS011;66928;52.086;5.240;2023-01-25T08:38:36;50.6;;;38.21;;
50651;SDS011;66928;52.086;5.240;2023-01-25T08:40:18;49.6;;;37.1;;
50651;SDS011;66928;52.086;5.240;2023-01-25T08:41:54;54.8;;;39.5;;
50651;SDS011;66928;52.086;5.240;2023-01-25T08:45:06;56.5;;;41.0;;
50651;SDS011;66928;52.086;5.240;2023-01-25T08:46:45;54.3;;;39.0;;
50651;SDS011;66928;52.086;5.240;2023-01-25T08:48:21;54.9;;;40.31;;
50651;SDS011;66928;52.086;5.240;2023-01-25T08:51:33;54.1;;;39.71;;
50651;SDS011;66928;52.086;5.240;2023-01-25T08:53:10;54.9;;;39.31;;
50651;SDS011;66928;52.086;5.240;2023-01-25T08:54:46;53.5;;;38.81;;
50651;SDS011;66928;52.086;5.240;2023-01-25T08:56:23;52.5;;;39.21;;
50651;SDS011;66928;52.086;5.240;2023-01-25T08:59:35;54.1;;;39.0;;
50651;SDS011;66928;52.086;5.240;2023-01-25T09:01:12;54.1;;;39.4;;
50651;SDS011;66928;52.086;5.240;2023-01-25T09:02:49;56.2;;;40.1;;
50651;SDS011;66928;52.086;5.240;2023-01-25T09:06:04;54.0;;;40.0;;
50651;SDS011;66928;52.086;5.240;2023-01-25T09:07:41;55.1;;;39.9;;
50651;SDS011;66928;52.086;5.240;2023-01-25T09:09:17;59.8;;;42.5;;
50651;SDS011;66928;52.086;5.240;2023-01-25T09:12:30;53.0;;;39.5;;
50651;SDS011;66928;52.086;5.240;2023-01-25T09:14:07;53.0;;;39.5;;
50651;SDS011;66928;52.086;5.240;2023-01-25T09:15:43;53.0;;;39.81;;
50651;SDS011;66928;52.086;5.240;2023-01-25T09:17:20;54.7;;;39.31;;
50651;SDS011;66928;52.086;5.240;2023-01-25T09:20:37;54.2;;;39.1;;
50651;SDS011;66928;52.086;5.240;2023-01-25T09:22:13;55.1;;;40.21;;
50651;SDS011;66928;52.086;5.240;2023-01-25T09:23:50;56.6;;;39.71;;
50651;SDS011;66928;52.086;5.240;2023-01-25T09:27:05;52.9;;;38.71;;
50651;SDS011;66928;52.086;5.240;2023-01-25T09:28:41;54.4;;;38.71;;
50651;SDS011;66928;52.086;5.240;2023-01-25T09:30:21;53.4;;;38.81;;
50651;SDS011;66928;52.086;5.240;2023-01-25T09:31:57;51.8;;;38.1;;
50651;SDS011;66928;52.086;5.240;2023-01-25T09:35:12;55.7;;;38.81;;
50651;SDS011;66928;52.086;5.240;2023-01-25T09:36:49;52.7;;;38.1;;
50651;SDS011;66928;52.086;5.240;2023-01-25T09:38:25;56.0;;;39.0;;
50651;SDS011;66928;52.086;5.240;2023-01-25T09:41:49;54.3;;;37.81;;
50651;SDS011;66928;52.086;5.240;2023-01-25T09:44:47;55.1;;;39.0;;
50651;SDS011;66928;52.086;5.240;2023-01-25T09:47:03;50.3;;;36.71;;
50651;SDS011;66928;52.086;5.240;2023-01-25T09:48:53;53.9;;;38.21;;
50651;SDS011;66928;52.086;5.240;2023-01-25T09:52:44;54.7;;;38.5;;
50651;SDS011;66928;52.086;5.240;2023-01-25T09:54:42;55.3;;;38.71;;
50651;SDS011;66928;52.086;5.240;2023-01-25T09:56:23;53.5;;;38.21;;
50651;SDS011;66928;52.086;5.240;2023-01-25T09:58:03;55.1;;;38.21;;
50651;SDS011;66928;52.086;5.240;2023-01-25T09:59:44;56.2;;;38.0;;
50651;SDS011;66928;52.086;5.240;2023-01-25T10:01:25;53.8;;;37.6;;
50651;SDS011;66928;52.086;5.240;2023-01-25T10:04:55;55.9;;;38.81;;
50651;SDS011;66928;52.086;5.240;2023-01-25T10:06:38;53.6;;;37.71;;
50651;SDS011;66928;52.086;5.240;2023-01-25T10:08:20;54.5;;;38.21;;
50651;SDS011;66928;52.086;5.240;2023-01-25T10:10:05;52.6;;;37.6;;
50651;SDS011;66928;52.086;5.240;2023-01-25T10:11:47;52.4;;;37.4;;
50651;SDS011;66928;52.086;5.240;2023-01-25T10:15:01;50.8;;;36.0;;
50651;SDS011;66928;52.086;5.240;2023-01-25T10:16:53;52.2;;;36.9;;
50651;SDS011;66928;52.086;5.240;2023-01-25T10:18:38;50.9;;;35.5;;
50651;SDS011;66928;52.086;5.240;2023-01-25T10:20:32;52.0;;;36.4;;
50651;SDS011;66928;52.086;5.240;2023-01-25T10:22:16;52.2;;;36.5;;
50651;SDS011;66928;52.086;5.240;2023-01-25T10:27:34;50.0;;;35.4;;
50651;SDS011;66928;52.086;5.240;2023-01-25T10:29:19;52.2;;;35.4;;
50651;SDS011;66928;52.086;5.240;2023-01-25T10:30:59;51.2;;;36.21;;
50651;SDS011;66928;52.086;5.240;2023-01-25T10:32:39;50.2;;;36.1;;
50651;SDS011;66928;52.086;5.240;2023-01-25T10:35:57;50.6;;;36.9;;
50651;SDS011;66928;52.086;5.240;2023-01-25T10:37:37;49.6;;;35.4;;
50651;SDS011;66928;52.086;5.240;2023-01-25T10:39:14;51.8;;;36.5;;
50651;SDS011;66928;52.086;5.240;2023-01-25T10:42:46;53.1;;;38.4;;
50651;SDS011;66928;52.086;5.240;2023-01-25T10:44:37;50.8;;;36.9;;
50651;SDS011;66928;52.086;5.240;2023-01-25T10:46:16;50.1;;;36.4;;
50651;SDS011;66928;52.086;5.240;2023-01-25T10:47:57;54.9;;;36.71;;
50651;SDS011;66928;52.086;5.240;2023-01-25T10:49:40;54.7;;;39.0;;
50651;SDS011;66928;52.086;5.240;2023-01-25T10:53:19;52.4;;;37.4;;
50651;SDS011;66928;52.086;5.240;2023-01-25T10:55:06;50.9;;;36.0;;
50651;SDS011;66928;52.086;5.240;2023-01-25T10:56:50;50.7;;;36.9;;
50651;SDS011;66928;52.086;5.240;2023-01-25T10:58:28;53.5;;;38.21;;
50651;SDS011;66928;52.086;5.240;2023-01-25T11:00:18;51.8;;;36.31;;
50651;SDS011;66928;52.086;5.240;2023-01-25T11:02:20;51.8;;;36.4;;
50651;SDS011;66928;52.086;5.240;2023-01-25T11:04:21;50.6;;;36.0;;
50651;SDS011;66928;52.086;5.240;2023-01-25T11:06:05;52.3;;;36.81;;
50651;SDS011;66928;52.086;5.240;2023-01-25T11:09:37;48.5;;;35.71;;
50651;SDS011;66928;52.086;5.240;2023-01-25T11:11:30;47.7;;;34.4;;
50651;SDS011;66928;52.086;5.240;2023-01-25T11:13:18;49.6;;;35.0;;
50651;SDS011;66928;52.086;5.240;2023-01-25T11:15:21;51.0;;;36.4;;
50651;SDS011;66928;52.086;5.240;2023-01-25T11:17:00;52.8;;;35.31;;
50651;SDS011;66928;52.086;5.240;2023-01-25T11:18:38;50.1;;;35.4;;
50651;SDS011;66928;52.086;5.240;2023-01-25T11:22:03;49.0;;;35.71;;
50651;SDS011;66928;52.086;5.240;2023-01-25T11:23:58;51.2;;;36.5;;
50651;SDS011;66928;52.086;5.240;2023-01-25T11:26:10;50.1;;;35.6;;
50651;SDS011;66928;52.086;5.240;2023-01-25T11:27:50;47.8;;;35.4;;
50651;SDS011;66928;52.086;5.240;2023-01-25T11:29:27;50.8;;;35.71;;
50651;SDS011;66928;52.086;5.240;2023-01-25T11:32:46;49.8;;;36.21;;
50651;SDS011;66928;52.086;5.240;2023-01-25T11:34:24;49.3;;;35.4;;
50651;SDS011;66928;52.086;5.240;2023-01-25T11:36:13;49.2;;;35.21;;
50651;SDS011;66928;52.086;5.240;2023-01-25T11:38:01;49.8;;;34.81;;
50651;SDS011;66928;52.086;5.240;2023-01-25T11:39:50;50.4;;;35.6;;
50651;SDS011;66928;52.086;5.240;2023-01-25T11:41:41;49.7;;;35.21;;
50651;SDS011;66928;52.086;5.240;2023-01-25T11:46:30;46.5;;;33.5;;
50651;SDS011;66928;52.086;5.240;2023-01-25T11:48:24;45.2;;;32.9;;
50651;SDS011;66928;52.086;5.240;2023-01-25T11:50:19;44.5;;;32.9;;
50651;SDS011;66928;52.086;5.240;2023-01-25T11:52:07;45.8;;;33.21;;
50651;SDS011;66928;52.086;5.240;2023-01-25T11:56:19;46.2;;;33.21;;
50651;SDS011;66928;52.086;5.240;2023-01-25T12:02:14;49.0;;;35.21;;
50651;SDS011;66928;52.086;5.240;2023-01-25T12:04:22;49.9;;;35.4;;
50651;SDS011;66928;52.086;5.240;2023-01-25T12:06:25;52.0;;;35.6;;
50651;SDS011;66928;52.086;5.240;2023-01-25T12:08:15;53.1;;;37.1;;
50651;SDS011;66928;52.086;5.240;2023-01-25T12:10:13;48.5;;;35.31;;
50651;SDS011;66928;52.086;5.240;2023-01-25T12:12:03;53.1;;;36.6;;
50651;SDS011;66928;52.086;5.240;2023-01-25T12:13:49;47.1;;;33.9;;
50651;SDS011;66928;52.086;5.240;2023-01-25T12:15:39;46.2;;;33.8;;
50651;SDS011;66928;52.086;5.240;2023-01-25T12:18:02;51.8;;;35.9;;
50651;SDS011;66928;52.086;5.240;2023-01-25T12:20:18;51.6;;;36.21;;
50651;SDS011;66928;52.086;5.240;2023-01-25T12:22:26;49.1;;;34.71;;
50651;SDS011;66928;52.086;5.240;2023-01-25T12:24:20;47.5;;;34.6;;
50651;SDS011;66928;52.086;5.240;2023-01-25T12:28:02;49.7;;;35.1;;
50651;SDS011;66928;52.086;5.240;2023-01-25T12:29:48;49.7;;;35.1;;
50651;SDS011;66928;52.086;5.240;2023-01-25T12:33:21;48.1;;;34.71;;
50651;SDS011;66928;52.086;5.240;2023-01-25T12:35:11;50.2;;;35.9;;
50651;SDS011;66928;52.086;5.240;2023-01-25T12:36:59;50.3;;;36.0;;
50651;SDS011;66928;52.086;5.240;2023-01-25T12:38:48;51.4;;;36.71;;
50651;SDS011;66928;52.086;5.240;2023-01-25T12:40:33;52.6;;;37.31;;
50651;SDS011;66928;52.086;5.240;2023-01-25T12:42:28;51.3;;;35.5;;
50651;SDS011;66928;52.086;5.240;2023-01-25T12:45:55;49.0;;;35.31;;
50651;SDS011;66928;52.086;5.240;2023-01-25T12:47:36;52.9;;;36.6;;
50651;SDS011;66928;52.086;5.240;2023-01-25T12:49:20;54.3;;;36.9;;
50651;SDS011;66928;52.086;5.240;2023-01-25T12:51:03;55.1;;;38.31;;
50651;SDS011;66928;52.086;5.240;2023-01-25T12:54:25;59.0;;;39.9;;
50651;SDS011;66928;52.086;5.240;2023-01-25T12:56:07;56.0;;;38.31;;
50651;SDS011;66928;52.086;5.240;2023-01-25T12:58:02;55.7;;;37.71;;
50651;SDS011;66928;52.086;5.240;2023-01-25T12:59:53;58.9;;;39.81;;
50651;SDS011;66928;52.086;5.240;2023-01-25T13:01:37;129.1;;;85.7;;
50651;SDS011;66928;52.086;5.240;2023-01-25T13:03:26;318.2;;;191.1;;
50651;SDS011;66928;52.086;5.240;2023-01-25T13:07:02;102.4;;;64.41;;
50651;SDS011;66928;52.086;5.240;2023-01-25T13:08:53;62.1;;;42.0;;
50651;SDS011;66928;52.086;5.240;2023-01-25T13:10:38;60.6;;;40.9;;
50651;SDS011;66928;52.086;5.240;2023-01-25T13:12:20;52.4;;;36.9;;
50651;SDS011;66928;52.086;5.240;2023-01-25T13:14:34;53.9;;;37.4;;
50651;SDS011;66928;52.086;5.240;2023-01-25T13:16:42;52.5;;;37.0;;
50651;SDS011;66928;52.086;5.240;2023-01-25T13:18:32;53.0;;;36.81;;
50651;SDS011;66928;52.086;5.240;2023-01-25T13:20:49;52.9;;;36.0;;
50651;SDS011;66928;52.086;5.240;2023-01-25T13:22:59;53.5;;;37.31;;
50651;SDS011;66928;52.086;5.240;2023-01-25T13:25:05;54.2;;;36.81;;
50651;SDS011;66928;52.086;5.240;2023-01-25T13:27:01;53.6;;;37.9;;
50651;SDS011;66928;52.086;5.240;2023-01-25T13:28:40;50.6;;;36.5;;
50651;SDS011;66928;52.086;5.240;2023-01-25T13:32:09;59.3;;;38.81;;
50651;SDS011;66928;52.086;5.240;2023-01-25T13:33:47;56.4;;;39.21;;
50651;SDS011;66928;52.086;5.240;2023-01-25T13:35:25;57.6;;;39.71;;
50651;SDS011;66928;52.086;5.240;2023-01-25T13:37:12;60.0;;;40.1;;
50651;SDS011;66928;52.086;5.240;2023-01-25T13:38:52;60.6;;;40.9;;
50651;SDS011;66928;52.086;5.240;2023-01-25T13:42:18;57.1;;;39.4;;
50651;SDS011;66928;52.086;5.240;2023-01-25T13:44:17;58.4;;;40.31;;
50651;SDS011;66928;52.086;5.240;2023-01-25T13:45:59;56.5;;;38.81;;
50651;SDS011;66928;52.086;5.240;2023-01-25T13:47:37;58.1;;;39.81;;
50651;SDS011;66928;52.086;5.240;2023-01-25T13:49:17;58.1;;;39.81;;
50651;SDS011;66928;52.086;5.240;2023-01-25T13:52:48;58.6;;;39.4;;
50651;SDS011;66928;52.086;5.240;2023-01-25T13:54:31;57.2;;;38.9;;
50651;SDS011;66928;52.086;5.240;2023-01-25T13:56:22;59.4;;;39.31;;
50651;SDS011;66928;52.086;5.240;2023-01-25T13:58:09;55.7;;;37.5;;
50651;SDS011;66928;52.086;5.240;2023-01-25T14:03:15;57.5;;;39.0;;
50651;SDS011;66928;52.086;5.240;2023-01-25T14:04:52;54.7;;;37.21;;
50651;SDS011;66928;52.086;5.240;2023-01-25T14:06:30;61.6;;;40.6;;
50651;SDS011;66928;52.086;5.240;2023-01-25T14:08:10;63.2;;;40.81;;
50651;SDS011;66928;52.086;5.240;2023-01-25T14:11:24;57.3;;;38.5;;
50651;SDS011;66928;52.086;5.240;2023-01-25T14:13:03;58.3;;;39.4;;
50651;SDS011;66928;52.086;5.240;2023-01-25T14:14:39;59.8;;;40.4;;
50651;SDS011;66928;52.086;5.240;2023-01-25T14:18:57;60.5;;;39.6;;
50651;SDS011;66928;52.086;5.240;2023-01-25T14:21:14;60.2;;;40.31;;
50651;SDS011;66928;52.086;5.240;2023-01-25T14:22:52;61.8;;;40.0;;
50651;SDS011;66928;52.086;5.240;2023-01-25T14:26:10;57.1;;;39.6;;
50651;SDS011;66928;52.086;5.240;2023-01-25T14:27:55;60.0;;;39.21;;
50651;SDS011;66928;52.086;5.240;2023-01-25T14:29:34;58.7;;;39.6;;
50651;SDS011;66928;52.086;5.240;2023-01-25T14:31:16;59.4;;;39.6;;
50651;SDS011;66928;52.086;5.240;2023-01-25T14:34:36;59.7;;;39.31;;
50651;SDS011;66928;52.086;5.240;2023-01-25T14:36:13;56.5;;;37.5;;
50651;SDS011;66928;52.086;5.240;2023-01-25T14:37:50;55.9;;;36.9;;
50651;SDS011;66928;52.086;5.240;2023-01-25T14:39:27;49.8;;;35.1;;
50651;SDS011;66928;52.086;5.240;2023-01-25T14:42:48;55.1;;;35.81;;
50651;SDS011;66928;52.086;5.240;2023-01-25T14:44:25;51.5;;;34.4;;
50651;SDS011;66928;52.086;5.240;2023-01-25T14:46:16;51.0;;;34.6;;
50651;SDS011;66928;52.086;5.240;2023-01-25T14:47:55;51.7;;;33.9;;
50651;SDS011;66928;52.086;5.240;2023-01-25T14:51:10;49.5;;;34.4;;
50651;SDS011;66928;52.086;5.240;2023-01-25T14:52:51;51.0;;;33.71;;
50651;SDS011;66928;52.086;5.240;2023-01-25T14:54:27;54.2;;;35.21;;
50651;SDS011;66928;52.086;5.240;2023-01-25T14:58:03;49.7;;;33.71;;
50651;SDS011;66928;52.086;5.240;2023-01-25T14:59:40;50.8;;;34.71;;
50651;SDS011;66928;52.086;5.240;2023-01-25T15:01:22;54.7;;;36.4;;
50651;SDS011;66928;52.086;5.240;2023-01-25T15:03:05;53.5;;;35.31;;
50651;SDS011;66928;52.086;5.240;2023-01-25T15:04:51;53.7;;;35.0;;
50651;SDS011;66928;52.086;5.240;2023-01-25T15:08:25;54.0;;;36.1;;
50651;SDS011;66928;52.086;5.240;2023-01-25T15:10:12;56.1;;;37.4;;
50651;SDS011;66928;52.086;5.240;2023-01-25T15:11:57;58.7;;;37.6;;
50651;SDS011;66928;52.086;5.240;2023-01-25T15:13:34;56.9;;;36.71;;
50651;SDS011;66928;52.086;5.240;2023-01-25T15:15:18;56.7;;;38.0;;
50651;SDS011;66928;52.086;5.240;2023-01-25T15:18:42;54.3;;;36.4;;
50651;SDS011;66928;52.086;5.240;2023-01-25T15:20:34;53.1;;;36.1;;
50651;SDS011;66928;52.086;5.240;2023-01-25T15:22:12;53.3;;;35.71;;
50651;SDS011;66928;52.086;5.240;2023-01-25T15:23:49;51.4;;;35.0;;
50651;SDS011;66928;52.086;5.240;2023-01-25T15:25:26;54.9;;;36.5;;
50651;SDS011;66928;52.086;5.240;2023-01-25T15:28:39;52.3;;;34.71;;
50651;SDS011;66928;52.086;5.240;2023-01-25T15:30:16;52.5;;;34.5;;
50651;SDS011;66928;52.086;5.240;2023-01-25T15:31:54;54.4;;;36.0;;
50651;SDS011;66928;52.086;5.240;2023-01-25T15:35:10;55.7;;;37.71;;
50651;SDS011;66928;52.086;5.240;2023-01-25T15:36:48;55.8;;;37.31;;
50651;SDS011;66928;52.086;5.240;2023-01-25T15:38:24;51.5;;;35.0;;
50651;SDS011;66928;52.086;5.240;2023-01-25T15:41:37;54.3;;;35.6;;
50651;SDS011;66928;52.086;5.240;2023-01-25T15:43:14;54.2;;;36.4;;
50651;SDS011;66928;52.086;5.240;2023-01-25T15:46:28;53.9;;;35.6;;
50651;SDS011;66928;52.086;5.240;2023-01-25T15:49:49;57.7;;;37.0;;
50651;SDS011;66928;52.086;5.240;2023-01-25T15:51:25;57.7;;;38.1;;
50651;SDS011;66928;52.086;5.240;2023-01-25T15:53:01;57.3;;;37.9;;
50651;SDS011;66928;52.086;5.240;2023-01-25T15:56:15;55.5;;;37.71;;
50651;SDS011;66928;52.086;5.240;2023-01-25T15:57:54;53.4;;;35.6;;
50651;SDS011;66928;52.086;5.240;2023-01-25T15:59:30;53.0;;;34.81;;
50651;SDS011;66928;52.086;5.240;2023-01-25T16:01:07;53.8;;;37.5;;
50651;SDS011;66928;52.086;5.240;2023-01-25T16:04:24;55.6;;;36.9;;
50651;SDS011;66928;52.086;5.240;2023-01-25T16:06:01;54.2;;;36.6;;
50651;SDS011;66928;52.086;5.240;2023-01-25T16:07:58;56.0;;;37.71;;
50651;SDS011;66928;52.086;5.240;2023-01-25T16:09:34;56.6;;;37.4;;
50651;SDS011;66928;52.086;5.240;2023-01-25T16:12:46;55.0;;;37.31;;
50651;SDS011;66928;52.086;5.240;2023-01-25T16:14:28;55.9;;;37.0;;
50651;SDS011;66928;52.086;5.240;2023-01-25T16:16:07;54.9;;;36.9;;
50651;SDS011;66928;52.086;5.240;2023-01-25T16:17:52;54.8;;;36.31;;
50651;SDS011;66928;52.086;5.240;2023-01-25T16:21:07;56.5;;;37.1;;
50651;SDS011;66928;52.086;5.240;2023-01-25T16:22:45;56.5;;;37.4;;
50651;SDS011;66928;52.086;5.240;2023-01-25T16:24:22;55.5;;;37.1;;
50651;SDS011;66928;52.086;5.240;2023-01-25T16:27:35;54.7;;;36.1;;
50651;SDS011;66928;52.086;5.240;2023-01-25T16:29:12;56.6;;;37.71;;
50651;SDS011;66928;52.086;5.240;2023-01-25T16:30:48;60.1;;;39.31;;
50651;SDS011;66928;52.086;5.240;2023-01-25T16:32:24;58.5;;;39.71;;
50651;SDS011;66928;52.086;5.240;2023-01-25T16:35:38;62.9;;;41.7;;
50651;SDS011;66928;52.086;5.240;2023-01-25T16:37:14;65.7;;;43.1;;
50651;SDS011;66928;52.086;5.240;2023-01-25T16:38:51;64.0;;;42.3;;
50651;SDS011;66928;52.086;5.240;2023-01-25T16:42:11;69.61;;;44.3;;
50651;SDS011;66928;52.086;5.240;2023-01-25T16:43:47;67.7;;;42.4;;
50651;SDS011;66928;52.086;5.240;2023-01-25T16:45:24;64.5;;;42.0;;
50651;SDS011;66928;52.086;5.240;2023-01-25T16:47:00;69.8;;;43.0;;
50651;SDS011;66928;52.086;5.240;2023-01-25T16:50:14;70.3;;;43.5;;
50651;SDS011;66928;52.086;5.240;2023-01-25T16:51:52;65.1;;;42.1;;
50651;SDS011;66928;52.086;5.240;2023-01-25T16:53:29;63.1;;;41.4;;
50651;SDS011;66928;52.086;5.240;2023-01-25T16:56:43;68.5;;;42.8;;
50651;SDS011;66928;52.086;5.240;2023-01-25T16:58:20;66.3;;;42.7;;
50651;SDS011;66928;52.086;5.240;2023-01-25T16:59:56;65.8;;;41.8;;
50651;SDS011;66928;52.086;5.240;2023-01-25T17:03:10;65.41;;;42.7;;
50651;SDS011;66928;52.086;5.240;2023-01-25T17:04:46;64.1;;;41.7;;
50651;SDS011;66928;52.086;5.240;2023-01-25T17:06:23;62.2;;;39.9;;
50651;SDS011;66928;52.086;5.240;2023-01-25T17:08:03;60.8;;;40.0;;
50651;SDS011;66928;52.086;5.240;2023-01-25T17:11:17;60.8;;;40.0;;
50651;SDS011;66928;52.086;5.240;2023-01-25T17:12:54;56.9;;;38.1;;
50651;SDS011;66928;52.086;5.240;2023-01-25T17:14:30;62.2;;;39.4;;
50651;SDS011;66928;52.086;5.240;2023-01-25T17:17:44;59.7;;;38.9;;
50651;SDS011;66928;52.086;5.240;2023-01-25T17:19:21;55.1;;;37.0;;
50651;SDS011;66928;52.086;5.240;2023-01-25T17:20:57;56.1;;;36.6;;
50651;SDS011;66928;52.086;5.240;2023-01-25T17:22:36;55.8;;;37.4;;
50651;SDS011;66928;52.086;5.240;2023-01-25T17:25:51;59.0;;;38.31;;
50651;SDS011;66928;52.086;5.240;2023-01-25T17:27:27;58.4;;;39.31;;
50651;SDS011;66928;52.086;5.240;2023-01-25T17:29:04;62.5;;;39.5;;
50651;SDS011;66928;52.086;5.240;2023-01-25T17:32:16;63.1;;;39.71;;
50651;SDS011;66928;52.086;5.240;2023-01-25T17:33:52;58.0;;;37.6;;
50651;SDS011;66928;52.086;5.240;2023-01-25T17:35:33;58.7;;;38.71;;
50651;SDS011;66928;52.086;5.240;2023-01-25T17:38:47;56.8;;;38.5;;
50651;SDS011;66928;52.086;5.240;2023-01-25T17:40:24;59.5;;;37.9;;
50651;SDS011;66928;52.086;5.240;2023-01-25T17:42:00;57.1;;;38.5;;
50651;SDS011;66928;52.086;5.240;2023-01-25T17:43:36;59.7;;;38.5;;
50651;SDS011;66928;52.086;5.240;2023-01-25T17:46:50;61.3;;;38.1;;
50651;SDS011;66928;52.086;5.240;2023-01-25T17:48:26;58.1;;;38.21;;
50651;SDS011;66928;52.086;5.240;2023-01-25T17:50:03;59.7;;;39.1;;
50651;SDS011;66928;52.086;5.240;2023-01-25T17:53:16;58.1;;;38.71;;
50651;SDS011;66928;52.086;5.240;2023-01-25T17:54:52;65.7;;;41.0;;
50651;SDS011;66928;52.086;5.240;2023-01-25T17:56:29;59.3;;;38.1;;
50651;SDS011;66928;52.086;5.240;2023-01-25T17:58:06;59.5;;;40.0;;
50651;SDS011;66928;52.086;5.240;2023-01-25T18:01:19;64.0;;;40.4;;
50651;SDS011;66928;52.086;5.240;2023-01-25T18:02:58;66.7;;;41.5;;
50651;SDS011;66928;52.086;5.240;2023-01-25T18:04:34;75.11;;;44.5;;
50651;SDS011;66928;52.086;5.240;2023-01-25T18:07:48;67.5;;;41.4;;
50651;SDS011;66928;52.086;5.240;2023-01-25T18:09:26;69.61;;;43.3;;
50651;SDS011;66928;52.086;5.240;2023-01-25T18:11:06;70.61;;;43.3;;
50651;SDS011;66928;52.086;5.240;2023-01-25T18:14:19;69.61;;;42.4;;
50651;SDS011;66928;52.086;5.240;2023-01-25T18:15:55;74.2;;;42.9;;
50651;SDS011;66928;52.086;5.240;2023-01-25T18:17:34;75.0;;;44.6;;
50651;SDS011;66928;52.086;5.240;2023-01-25T18:19:11;77.3;;;44.7;;
50651;SDS011;66928;52.086;5.240;2023-01-25T18:22:24;85.3;;;48.2;;
50651;SDS011;66928;52.086;5.240;2023-01-25T18:24:02;86.8;;;48.1;;
50651;SDS011;66928;52.086;5.240;2023-01-25T18:25:51;83.9;;;48.3;;
50651;SDS011;66928;52.086;5.240;2023-01-25T18:27:28;86.4;;;48.3;;
50651;SDS011;66928;52.086;5.240;2023-01-25T18:31:16;86.4;;;48.3;;
50651;SDS011;66928;52.086;5.240;2023-01-25T18:32:53;86.9;;;47.1;;
50651;SDS011;66928;52.086;5.240;2023-01-25T18:34:30;90.3;;;48.6;;
50651;SDS011;66928;52.086;5.240;2023-01-25T18:36:06;87.1;;;48.4;;
50651;SDS011;66928;52.086;5.240;2023-01-25T18:39:22;88.6;;;49.7;;
50651;SDS011;66928;52.086;5.240;2023-01-25T18:40:58;86.4;;;47.7;;
50651;SDS011;66928;52.086;5.240;2023-01-25T18:42:35;89.2;;;49.3;;
50651;SDS011;66928;52.086;5.240;2023-01-25T18:44:13;94.6;;;50.2;;
50651;SDS011;66928;52.086;5.240;2023-01-25T18:47:30;97.3;;;51.6;;
50651;SDS011;66928;52.086;5.240;2023-01-25T18:49:06;89.7;;;49.4;;
50651;SDS011;66928;52.086;5.240;2023-01-25T18:50:42;90.3;;;48.4;;
50651;SDS011;66928;52.086;5.240;2023-01-25T18:53:58;88.7;;;49.2;;
50651;SDS011;66928;52.086;5.240;2023-01-25T18:55:34;93.0;;;51.1;;
50651;SDS011;66928;52.086;5.240;2023-01-25T18:57:11;91.4;;;50.4;;
50651;SDS011;66928;52.086;5.240;2023-01-25T18:58:50;87.1;;;48.0;;
50651;SDS011;66928;52.086;5.240;2023-01-25T19:02:02;88.8;;;49.6;;
50651;SDS011;66928;52.086;5.240;2023-01-25T19:03:39;89.4;;;48.8;;
50651;SDS011;66928;52.086;5.240;2023-01-25T19:05:18;86.0;;;49.7;;
50651;SDS011;66928;52.086;5.240;2023-01-25T19:08:34;88.9;;;48.2;;
50651;SDS011;66928;52.086;5.240;2023-01-25T19:10:11;85.7;;;47.9;;
50651;SDS011;66928;52.086;5.240;2023-01-25T19:11:47;85.9;;;48.3;;
50651;SDS011;66928;52.086;5.240;2023-01-25T19:15:01;85.0;;;47.3;;
50651;SDS011;66928;52.086;5.240;2023-01-25T19:16:38;81.61;;;48.2;;